createdAt,value
2023-05-07T00:00:49.784Z,48.65
2023-05-07T00:03:18.024Z,49.80
2023-05-07T00:05:46.437Z,49.28
2023-05-07T00:08:14.870Z,47.95
2023-05-07T00:10:45.252Z,48.22
2023-05-07T00:13:13.432Z,47.05
2023-05-07T00:15:43.181Z,48.92
2023-05-07T00:18:11.374Z,47.53
2023-05-07T00:20:40.863Z,47.28
2023-05-07T00:23:09.180Z,47.13
2023-05-07T00:25:37.490Z,46.15
2023-05-07T00:28:05.751Z,47.85
2023-05-07T00:30:34.191Z,47.83
2023-05-07T00:33:03.895Z,47.55
2023-05-07T00:35:32.355Z,49.25
2023-05-07T00:38:02.302Z,48.10
2023-05-07T00:40:30.505Z,49.25
2023-05-07T00:42:59.447Z,46.63
2023-05-07T00:45:29.642Z,48.80
2023-05-07T00:47:59.562Z,49.35
2023-05-07T00:50:30.298Z,48.90
2023-05-07T00:53:01.937Z,48.03
2023-05-07T00:55:30.798Z,48.65
2023-05-07T00:57:59.097Z,47.00
2023-05-07T01:00:28.106Z,47.17
2023-05-07T01:02:58.984Z,49.20
2023-05-07T01:05:32.895Z,48.72
2023-05-07T01:08:02.800Z,49.30
2023-05-07T01:10:32.253Z,49.38
2023-05-07T01:13:04.162Z,49.47
2023-05-07T01:15:32.579Z,47.47
2023-05-07T01:18:00.866Z,47.35
2023-05-07T01:20:30.843Z,47.97
2023-05-07T01:23:01.445Z,46.72
2023-05-07T01:25:31.519Z,47.80
2023-05-07T01:28:00.925Z,47.92
2023-05-07T01:30:29.848Z,46.10
2023-05-07T01:33:02.887Z,45.85
2023-05-07T01:35:36.413Z,47.63
2023-05-07T01:38:07.293Z,45.15
2023-05-07T01:40:36.507Z,46.90
2023-05-07T01:43:05.443Z,46.53
2023-05-07T01:45:36.489Z,46.20
2023-05-07T01:48:05.197Z,47.28
2023-05-07T01:50:34.690Z,46.72
2023-05-07T01:53:05.086Z,45.88
2023-05-07T01:55:33.344Z,45.90
2023-05-07T01:58:01.682Z,45.50
2023-05-07T02:00:30.166Z,46.90
2023-05-07T02:02:58.885Z,45.97
2023-05-07T02:05:27.330Z,47.33
2023-05-07T02:07:55.565Z,46.55
2023-05-07T02:10:25.510Z,46.88
2023-05-07T02:12:53.692Z,46.65
2023-05-07T02:15:22.009Z,47.78
2023-05-07T02:18:03.976Z,48.42
2023-05-07T02:20:32.373Z,48.00
2023-05-07T02:23:01.628Z,47.70
2023-05-07T02:25:31.448Z,46.80
2023-05-07T02:27:59.922Z,47.97
2023-05-07T02:30:28.599Z,47.88
2023-05-07T02:32:57.071Z,49.47
2023-05-07T02:35:26.935Z,48.67
2023-05-07T02:37:55.633Z,48.17
2023-05-07T02:40:23.955Z,48.80
2023-05-07T02:42:53.577Z,49.13
2023-05-07T02:45:21.719Z,49.67
2023-05-07T02:47:50.015Z,48.55
2023-05-07T02:50:21.248Z,48.22
2023-05-07T02:52:49.519Z,48.55
2023-05-07T02:55:17.676Z,48.45
2023-05-07T02:57:45.916Z,49.13
2023-05-07T03:00:17.988Z,48.65
2023-05-07T03:02:46.402Z,47.60
2023-05-07T03:05:15.455Z,47.58
2023-05-07T03:07:46.426Z,48.10
2023-05-07T03:10:14.455Z,47.70
2023-05-07T03:12:45.970Z,48.97
2023-05-07T03:15:15.695Z,47.67
2023-05-07T03:17:44.300Z,47.35
2023-05-07T03:20:14.406Z,47.65
2023-05-07T03:22:43.108Z,47.28
2023-05-07T03:25:12.373Z,47.55
2023-05-07T03:27:40.713Z,47.38
2023-05-07T03:30:14.702Z,46.25
2023-05-07T03:32:45.051Z,46.90
2023-05-07T03:35:13.433Z,47.80
2023-05-07T03:37:42.145Z,48.30
2023-05-07T03:40:13.862Z,46.70
2023-05-07T03:42:44.665Z,46.28
2023-05-07T03:45:13.103Z,46.28
2023-05-07T03:47:42.929Z,46.50
2023-05-07T03:50:13.987Z,45.92
2023-05-07T03:52:45.577Z,45.42
2023-05-07T03:55:13.846Z,44.33
2023-05-07T03:57:42.076Z,45.40
2023-05-07T04:00:11.308Z,44.47
2023-05-07T04:02:39.891Z,45.30
2023-05-07T04:05:08.579Z,46.30
2023-05-07T04:07:38.275Z,44.83
2023-05-07T04:10:07.528Z,45.70
2023-05-07T04:12:36.177Z,46.42
2023-05-07T04:15:04.889Z,45.63
2023-05-07T04:17:33.127Z,44.28
2023-05-07T04:20:01.553Z,43.45
2023-05-07T04:22:29.719Z,43.55
2023-05-07T04:24:59.707Z,44.75
2023-05-07T04:27:29.050Z,43.90
2023-05-07T04:29:57.810Z,42.63
2023-05-07T04:32:26.586Z,43.35
2023-05-07T04:34:54.936Z,44.38
2023-05-07T04:37:23.050Z,43.47
2023-05-07T04:39:54.147Z,43.92
2023-05-07T04:42:23.732Z,42.25
2023-05-07T04:44:55.640Z,43.22
2023-05-07T04:47:23.879Z,43.15
2023-05-07T04:49:52.067Z,42.42
2023-05-07T04:52:24.799Z,43.15
2023-05-07T04:54:54.258Z,44.05
2023-05-07T04:57:23.789Z,43.15
2023-05-07T04:59:51.990Z,43.20
2023-05-07T05:02:20.916Z,42.53
2023-05-07T05:04:49.390Z,42.47
2023-05-07T05:07:17.525Z,43.13
2023-05-07T05:09:45.999Z,43.47
2023-05-07T05:12:14.204Z,42.97
2023-05-07T05:14:44.044Z,42.85
2023-05-07T05:17:12.287Z,40.95
2023-05-07T05:19:41.072Z,42.20
2023-05-07T05:22:09.344Z,41.65
2023-05-07T05:24:37.701Z,42.65
2023-05-07T05:27:06.366Z,42.58
2023-05-07T05:29:34.839Z,40.78
2023-05-07T05:32:04.636Z,42.22
2023-05-07T05:34:34.306Z,42.63
2023-05-07T05:37:02.744Z,41.95
2023-05-07T05:39:30.866Z,41.40
2023-05-07T05:41:59.087Z,43.42
2023-05-07T05:44:27.442Z,43.05
2023-05-07T05:46:58.820Z,42.58
2023-05-07T05:49:28.434Z,42.78
2023-05-07T05:51:56.841Z,42.67
2023-05-07T05:54:25.032Z,43.00
2023-05-07T05:56:53.595Z,43.25
2023-05-07T05:59:21.959Z,42.50
2023-05-07T06:01:50.323Z,42.53
2023-05-07T06:04:18.765Z,41.70
2023-05-07T06:06:48.337Z,42.83
2023-05-07T06:09:16.496Z,42.15
2023-05-07T06:11:44.811Z,42.92
2023-05-07T06:14:13.163Z,42.90
2023-05-07T06:16:41.618Z,43.05
2023-05-07T06:19:09.881Z,43.00
2023-05-07T06:21:38.595Z,42.85
2023-05-07T06:24:08.959Z,42.72
2023-05-07T06:26:37.163Z,42.95
2023-05-07T06:29:05.769Z,43.25
2023-05-07T06:31:34.203Z,42.72
2023-05-07T06:34:03.407Z,41.33
2023-05-07T06:36:31.876Z,42.90
2023-05-07T06:39:02.883Z,42.78
2023-05-07T06:41:32.372Z,43.17
2023-05-07T06:44:00.751Z,42.28
2023-05-07T06:46:29.661Z,41.92
2023-05-07T06:48:58.632Z,41.95
2023-05-07T06:51:26.885Z,41.33
2023-05-07T06:53:55.719Z,42.47
2023-05-07T06:56:24.087Z,42.17
2023-05-07T06:58:53.987Z,43.78
2023-05-07T07:01:22.314Z,43.60
2023-05-07T07:03:52.314Z,42.17
2023-05-07T07:06:21.178Z,43.92
2023-05-07T07:08:50.503Z,43.08
2023-05-07T07:11:18.854Z,42.83
2023-05-07T07:13:47.215Z,44.55
2023-05-07T07:16:19.878Z,42.80
2023-05-07T07:18:48.253Z,42.13
2023-05-07T07:21:16.444Z,44.60
2023-05-07T07:23:44.707Z,43.13
2023-05-07T07:26:12.884Z,42.38
2023-05-07T07:28:47.764Z,43.13
2023-05-07T07:31:16.237Z,41.92
2023-05-07T07:33:45.928Z,42.00
2023-05-07T07:36:14.231Z,41.53
2023-05-07T07:38:44.211Z,41.47
2023-05-07T07:41:12.607Z,41.80
2023-05-07T07:43:41.099Z,41.60
2023-05-07T07:46:11.201Z,41.63
2023-05-07T07:48:39.486Z,41.67
2023-05-07T07:51:09.578Z,40.25
2023-05-07T07:53:37.829Z,41.47
2023-05-07T07:56:06.588Z,42.80
2023-05-07T07:58:38.926Z,41.25
2023-05-07T08:01:07.227Z,43.00
2023-05-07T08:03:35.549Z,41.85
2023-05-07T08:06:03.816Z,42.60
2023-05-07T08:08:33.323Z,43.25
2023-05-07T08:11:01.806Z,42.53
2023-05-07T08:13:34.837Z,43.50
2023-05-07T08:16:03.545Z,42.83
2023-05-07T08:18:31.875Z,42.50
2023-05-07T08:20:59.945Z,43.03
2023-05-07T08:23:28.215Z,44.13
2023-05-07T08:25:58.554Z,43.70
2023-05-07T08:28:26.938Z,43.95
2023-05-07T08:30:55.239Z,45.20
2023-05-07T08:33:23.822Z,45.25
2023-05-07T08:35:52.009Z,45.40
2023-05-07T08:38:22.016Z,46.35
2023-05-07T08:40:57.936Z,46.33
2023-05-07T08:43:29.700Z,47.60
2023-05-07T08:46:01.792Z,46.35
2023-05-07T08:48:31.596Z,48.25
2023-05-07T08:51:00.419Z,48.38
2023-05-07T08:53:29.071Z,46.85
2023-05-07T08:56:01.843Z,47.67
2023-05-07T08:58:31.707Z,47.30
2023-05-07T09:01:01.204Z,48.47
2023-05-07T09:03:30.608Z,48.00
2023-05-07T09:05:58.980Z,50.58
2023-05-07T09:08:31.123Z,52.47
2023-05-07T09:10:59.589Z,51.22
2023-05-07T09:13:29.427Z,51.20
2023-05-07T09:16:01.350Z,51.25
2023-05-07T09:18:29.618Z,53.97
2023-05-07T09:20:57.995Z,52.47
2023-05-07T09:23:26.489Z,53.92
2023-05-07T09:26:03.255Z,54.40
2023-05-07T09:28:34.119Z,55.90
2023-05-07T09:31:03.917Z,56.92
2023-05-07T09:33:31.938Z,57.15
2023-05-07T09:36:00.088Z,57.00
2023-05-07T09:38:29.797Z,56.45
2023-05-07T09:41:11.069Z,58.30
2023-05-07T09:43:41.273Z,60.42
2023-05-07T09:46:15.172Z,61.00
2023-05-07T09:48:45.295Z,64.05
2023-05-07T09:51:24.627Z,62.70
2023-05-07T09:53:54.875Z,63.75
2023-05-07T09:56:24.845Z,61.78
2023-05-07T09:58:56.685Z,61.80
2023-05-07T10:01:30.211Z,62.58
2023-05-07T10:03:59.802Z,63.70
2023-05-07T10:06:28.664Z,66.25
2023-05-07T10:09:00.214Z,67.53
2023-05-07T10:11:28.845Z,69.15
2023-05-07T10:13:58.018Z,68.88
2023-05-07T10:16:37.276Z,70.20
2023-05-07T10:19:06.144Z,70.68
2023-05-07T10:21:38.610Z,69.45
2023-05-07T10:24:15.081Z,71.13
2023-05-07T10:26:46.839Z,69.03
2023-05-07T10:29:20.846Z,70.40
2023-05-07T10:32:26.305Z,63.60
2023-05-07T10:34:59.607Z,62.55
2023-05-07T10:37:28.147Z,58.65
2023-05-07T10:39:58.724Z,58.47
2023-05-07T10:42:30.075Z,52.33
2023-05-07T10:44:59.004Z,51.17
2023-05-07T10:47:30.110Z,52.83
2023-05-07T10:50:26.186Z,52.03
2023-05-07T10:53:29.786Z,39.80
2023-05-07T10:56:29.932Z,39.97
2023-05-07T10:59:35.063Z,35.55
2023-05-07T11:02:09.275Z,32.10
2023-05-07T11:04:40.268Z,20.65
2023-05-07T11:07:31.011Z,8.48
2023-05-07T11:10:02.498Z,7.18
2023-05-07T11:12:50.901Z,6.68
2023-05-07T11:15:38.594Z,6.18
2023-05-07T11:18:09.860Z,6.03
2023-05-07T11:20:52.333Z,4.55
2023-05-07T11:24:09.301Z,4.47
2023-05-07T11:26:46.607Z,4.90
2023-05-07T11:29:21.591Z,5.40
2023-05-07T11:31:57.316Z,6.10
2023-05-07T11:34:27.721Z,5.63
2023-05-07T11:37:04.986Z,5.50
2023-05-07T11:39:37.464Z,6.93
2023-05-07T11:42:06.284Z,5.30
2023-05-07T11:44:47.746Z,6.40
2023-05-07T11:47:25.222Z,6.85
2023-05-07T11:49:55.571Z,6.72
2023-05-07T11:52:28.918Z,7.03
2023-05-07T11:55:12.179Z,6.50
2023-05-07T11:57:44.668Z,6.72
2023-05-07T12:00:14.055Z,7.05
2023-05-07T12:02:43.178Z,7.75
2023-05-07T12:05:12.496Z,7.03
2023-05-07T12:07:44.295Z,7.38
2023-05-07T12:10:21.781Z,7.13
2023-05-07T12:12:54.160Z,6.85
2023-05-07T12:15:25.391Z,6.63
2023-05-07T12:17:54.018Z,6.00
2023-05-07T12:20:24.712Z,7.03
2023-05-07T12:22:57.135Z,7.47
2023-05-07T12:25:28.747Z,9.98
2023-05-07T12:27:59.911Z,12.20
2023-05-07T12:30:28.154Z,11.93
2023-05-07T12:32:56.867Z,12.65
2023-05-07T12:35:37.221Z,13.43
2023-05-07T12:38:10.527Z,13.65
2023-05-07T12:40:39.999Z,15.82
2023-05-07T12:43:08.507Z,15.30
2023-05-07T12:45:40.954Z,16.42
2023-05-07T12:48:11.584Z,17.45
2023-05-07T12:50:39.986Z,22.38
2023-05-07T12:53:12.180Z,30.73
2023-05-07T12:55:45.149Z,47.22
2023-05-07T12:58:18.978Z,51.80
2023-05-07T13:00:49.284Z,56.55
2023-05-07T13:03:25.348Z,59.08
2023-05-07T13:05:58.742Z,61.15
2023-05-07T13:08:31.070Z,67.32
2023-05-07T13:11:01.103Z,68.15
2023-05-07T13:13:32.412Z,66.68
2023-05-07T13:16:04.993Z,68.78
2023-05-07T13:18:36.933Z,72.35
2023-05-07T13:21:05.583Z,68.55
2023-05-07T13:23:39.534Z,69.25
2023-05-07T13:26:22.489Z,70.95
2023-05-07T13:28:57.095Z,69.10
2023-05-07T13:31:25.388Z,70.65
2023-05-07T13:33:57.305Z,67.18
2023-05-07T13:36:25.527Z,71.18
2023-05-07T13:38:59.446Z,69.18
2023-05-07T13:41:28.089Z,69.15
2023-05-07T13:43:56.869Z,71.10
2023-05-07T13:46:27.464Z,69.47
2023-05-07T13:48:55.834Z,71.15
2023-05-07T13:51:27.114Z,70.07
2023-05-07T13:54:07.078Z,67.97
2023-05-07T13:56:35.356Z,70.68
2023-05-07T13:59:33.864Z,72.00
2023-05-07T14:02:06.320Z,66.38
2023-05-07T14:04:34.494Z,66.72
2023-05-07T14:07:02.733Z,64.95
2023-05-07T14:09:32.378Z,62.75
2023-05-07T14:12:01.237Z,63.05
2023-05-07T14:14:29.522Z,63.60
2023-05-07T14:17:03.245Z,63.42
2023-05-07T14:19:42.518Z,61.40
2023-05-07T14:22:10.982Z,61.28
2023-05-07T14:24:40.893Z,60.55
2023-05-07T14:27:09.189Z,59.20
2023-05-07T14:29:37.302Z,58.47
2023-05-07T14:32:05.711Z,56.53
2023-05-07T14:34:35.137Z,57.75
2023-05-07T14:37:03.655Z,58.10
2023-05-07T14:39:32.058Z,61.28
2023-05-07T14:42:01.537Z,60.13
2023-05-07T14:44:32.456Z,60.78
2023-05-07T14:47:02.242Z,62.30
2023-05-07T14:49:33.706Z,61.80
2023-05-07T14:52:02.094Z,61.33
2023-05-07T14:54:30.495Z,60.72
2023-05-07T14:56:58.674Z,63.83
2023-05-07T14:59:28.282Z,62.85
2023-05-07T15:01:56.997Z,61.25
2023-05-07T15:04:26.245Z,59.63
2023-05-07T15:07:01.015Z,59.40
2023-05-07T15:09:29.235Z,60.53
2023-05-07T15:11:58.005Z,59.90
2023-05-07T15:14:27.715Z,61.35
2023-05-07T15:16:58.828Z,60.20
2023-05-07T15:19:30.128Z,59.40
2023-05-07T15:22:01.640Z,61.03
2023-05-07T15:24:29.848Z,62.05
2023-05-07T15:27:00.395Z,60.10
2023-05-07T15:29:29.895Z,63.70
2023-05-07T15:31:58.679Z,60.90
2023-05-07T15:34:28.875Z,60.88
2023-05-07T15:36:58.604Z,60.67
2023-05-07T15:39:27.457Z,58.25
2023-05-07T15:42:02.621Z,58.65
2023-05-07T15:44:35.516Z,59.90
2023-05-07T15:47:06.240Z,58.88
2023-05-07T15:49:35.128Z,57.90
2023-05-07T15:52:06.290Z,59.53
2023-05-07T15:54:41.008Z,59.58
2023-05-07T15:57:11.797Z,59.72
2023-05-07T15:59:42.831Z,59.13
2023-05-07T16:02:11.179Z,57.53
2023-05-07T16:04:42.564Z,59.33
2023-05-07T16:07:12.556Z,60.03
2023-05-07T16:09:41.423Z,56.58
2023-05-07T16:12:09.950Z,58.33
2023-05-07T16:14:38.120Z,55.78
2023-05-07T16:17:07.772Z,54.63
2023-05-07T16:19:36.119Z,54.90
2023-05-07T16:22:04.359Z,55.15
2023-05-07T16:24:32.768Z,55.10
2023-05-07T16:27:01.355Z,54.28
2023-05-07T16:29:29.426Z,57.45
2023-05-07T16:31:59.406Z,56.83
2023-05-07T16:34:30.947Z,53.92
2023-05-07T16:37:00.707Z,53.55
2023-05-07T16:39:28.951Z,53.53
2023-05-07T16:42:00.638Z,54.72
2023-05-07T16:44:29.051Z,55.08
2023-05-07T16:46:57.820Z,56.60
2023-05-07T16:49:25.884Z,54.38
2023-05-07T16:51:56.910Z,54.45
2023-05-07T16:54:25.092Z,53.28
2023-05-07T16:56:54.032Z,50.08
2023-05-07T16:59:23.267Z,50.83
2023-05-07T17:01:57.163Z,48.45
2023-05-07T17:04:27.268Z,47.15
2023-05-07T17:06:59.055Z,47.60
2023-05-07T17:09:30.870Z,47.60
2023-05-07T17:11:59.137Z,47.20
2023-05-07T17:14:27.767Z,46.42
2023-05-07T17:16:57.478Z,44.22
2023-05-07T17:19:25.765Z,45.08
2023-05-07T17:21:57.768Z,44.15
2023-05-07T17:24:28.590Z,44.55
2023-05-07T17:27:05.750Z,44.50
2023-05-07T17:29:35.907Z,44.13
2023-05-07T17:32:11.921Z,46.13
2023-05-07T17:34:42.000Z,44.20
2023-05-07T17:37:11.695Z,42.97
2023-05-07T17:39:40.185Z,44.33
2023-05-07T17:42:08.515Z,46.00
2023-05-07T17:44:38.854Z,44.08
2023-05-07T17:47:14.379Z,43.90
2023-05-07T17:49:43.345Z,44.58
2023-05-07T17:52:13.346Z,44.03
2023-05-07T17:54:41.820Z,44.60
2023-05-07T17:57:14.279Z,44.75
2023-05-07T17:59:42.403Z,43.80
2023-05-07T18:02:13.622Z,44.85
2023-05-07T18:04:41.908Z,44.75
2023-05-07T18:07:11.809Z,44.45
2023-05-07T18:09:46.234Z,45.67
2023-05-07T18:12:17.369Z,46.45
2023-05-07T18:14:49.320Z,46.00
2023-05-07T18:17:19.790Z,48.05
2023-05-07T18:20:02.785Z,46.72
2023-05-07T18:22:46.452Z,47.20
2023-05-07T18:25:34.101Z,47.67
2023-05-07T18:28:10.266Z,46.75
2023-05-07T18:30:40.822Z,47.05
2023-05-07T18:33:09.292Z,47.50
2023-05-07T18:35:38.305Z,46.30
2023-05-07T18:38:09.024Z,45.17
2023-05-07T18:40:49.362Z,44.97
2023-05-07T18:44:08.309Z,45.65
2023-05-07T18:46:37.043Z,46.40
2023-05-07T18:49:07.905Z,46.65
2023-05-07T18:51:36.327Z,46.50
2023-05-07T18:54:04.774Z,47.15
2023-05-07T18:56:43.359Z,47.65
2023-05-07T18:59:12.452Z,49.38
2023-05-07T19:01:40.788Z,48.25
2023-05-07T19:04:09.189Z,50.25
2023-05-07T19:06:38.938Z,48.20
2023-05-07T19:09:09.827Z,49.17
2023-05-07T19:11:42.163Z,48.50
2023-05-07T19:14:13.535Z,49.08
2023-05-07T19:16:42.228Z,49.53
2023-05-07T19:19:11.199Z,50.42
2023-05-07T19:21:39.517Z,48.63
2023-05-07T19:24:11.883Z,49.35
2023-05-07T19:26:41.678Z,50.53
2023-05-07T19:29:17.181Z,47.42
2023-05-07T19:31:46.664Z,50.63
2023-05-07T19:34:18.393Z,52.03
2023-05-07T19:36:46.804Z,52.92
2023-05-07T19:39:15.038Z,54.63
2023-05-07T19:41:47.222Z,52.92
2023-05-07T19:44:16.427Z,52.47
2023-05-07T19:46:47.849Z,57.10
2023-05-07T19:49:18.486Z,54.75
2023-05-07T19:51:46.862Z,52.97
2023-05-07T19:54:18.342Z,52.17
2023-05-07T19:56:49.263Z,50.55
2023-05-07T19:59:19.707Z,50.35
2023-05-07T20:01:51.723Z,52.10
2023-05-07T20:04:20.207Z,49.88
2023-05-07T20:06:49.596Z,52.35
2023-05-07T20:09:17.895Z,53.30
2023-05-07T20:11:47.774Z,50.47
2023-05-07T20:14:16.384Z,50.58
2023-05-07T20:16:47.844Z,49.83
2023-05-07T20:19:16.317Z,50.08
2023-05-07T20:21:44.809Z,54.35
2023-05-07T20:24:13.056Z,57.95
2023-05-07T20:26:41.306Z,58.20
2023-05-07T20:29:11.289Z,59.90
2023-05-07T20:31:39.795Z,59.03
2023-05-07T20:34:08.531Z,60.33
2023-05-07T20:36:39.834Z,60.33
2023-05-07T20:39:08.434Z,61.10
2023-05-07T20:41:37.112Z,58.67
2023-05-07T20:44:05.541Z,57.03
2023-05-07T20:46:46.214Z,56.88
2023-05-07T20:49:16.734Z,55.75
2023-05-07T20:51:45.036Z,54.28
2023-05-07T20:54:14.708Z,55.90
2023-05-07T20:56:44.164Z,57.25
2023-05-07T20:59:12.600Z,58.25
2023-05-07T21:01:43.980Z,58.17
2023-05-07T21:04:14.137Z,59.00
2023-05-07T21:06:43.747Z,60.63
2023-05-07T21:09:14.782Z,60.10
2023-05-07T21:11:43.323Z,61.38
2023-05-07T21:14:11.753Z,63.55
2023-05-07T21:16:43.091Z,68.50
2023-05-07T21:19:14.848Z,68.43
2023-05-07T21:21:43.528Z,66.22
2023-05-07T21:24:12.103Z,69.40
2023-05-07T21:26:40.318Z,64.80
2023-05-07T21:29:10.770Z,62.90
2023-05-07T21:31:41.687Z,63.83
2023-05-07T21:34:11.588Z,61.75
2023-05-07T21:36:39.725Z,64.75
2023-05-07T21:39:08.896Z,64.30
2023-05-07T21:41:37.750Z,66.75
2023-05-07T21:44:06.430Z,62.10
2023-05-07T21:46:42.187Z,64.05
2023-05-07T21:49:12.182Z,64.80
2023-05-07T21:51:45.052Z,64.68
2023-05-07T21:54:16.196Z,65.53
2023-05-07T21:56:48.846Z,64.22
2023-05-07T21:59:18.190Z,67.80
2023-05-07T22:01:46.521Z,64.72
2023-05-07T22:04:23.117Z,65.25
2023-05-07T22:06:51.607Z,64.35
2023-05-07T22:09:19.790Z,64.32
2023-05-07T22:11:48.106Z,64.43
2023-05-07T22:14:18.861Z,62.92
2023-05-07T22:16:47.427Z,62.10
2023-05-07T22:19:17.314Z,65.60
2023-05-07T22:21:45.598Z,64.05
2023-05-07T22:24:14.140Z,62.22
2023-05-07T22:26:42.308Z,63.95
2023-05-07T22:29:10.594Z,69.70
2023-05-07T22:31:38.931Z,61.80
2023-05-07T22:34:22.466Z,61.90
2023-05-07T22:36:51.196Z,60.10
2023-05-07T22:39:19.452Z,60.08
2023-05-07T22:41:49.701Z,57.80
2023-05-07T22:44:18.212Z,58.67
2023-05-07T22:46:46.426Z,59.45
2023-05-07T22:49:15.850Z,58.97
2023-05-07T22:51:45.573Z,63.30
2023-05-07T22:54:13.781Z,61.55
2023-05-07T22:56:42.315Z,61.92
2023-05-07T22:59:10.981Z,63.40
2023-05-07T23:01:40.642Z,62.03
2023-05-07T23:04:12.816Z,61.03
2023-05-07T23:06:41.690Z,58.38
2023-05-07T23:09:11.825Z,63.92
2023-05-07T23:11:40.373Z,68.90
2023-05-07T23:14:08.917Z,67.65
2023-05-07T23:16:37.315Z,63.30
2023-05-07T23:19:05.678Z,69.78
2023-05-07T23:21:33.849Z,66.32
2023-05-07T23:24:02.237Z,62.42
2023-05-07T23:26:32.185Z,68.30
2023-05-07T23:29:00.526Z,62.95
2023-05-07T23:31:28.906Z,69.22
2023-05-07T23:33:57.133Z,63.83
2023-05-07T23:36:25.384Z,63.15
2023-05-07T23:38:56.893Z,65.05
2023-05-07T23:41:26.715Z,60.97
2023-05-07T23:43:57.018Z,62.58
2023-05-07T23:46:27.846Z,71.47
2023-05-07T23:48:56.246Z,71.40
2023-05-07T23:51:26.536Z,71.38
2023-05-07T23:53:54.842Z,65.85
2023-05-07T23:56:23.882Z,70.05
2023-05-07T23:58:55.605Z,64.93
